sensor_id;sensor_type;location;lat;lon;timestamp;pressure;altitude;pressure_sealevel;temperature;humidity
20455;BME280;10386;54.314;10.022;2023-02-28T00:01:30;103337.97;;;4.13;100.00
20455;BME280;10386;54.314;10.022;2023-02-28T00:03:58;103338.88;;;4.12;100.00
20455;BME280;10386;54.314;10.022;2023-02-28T00:06:25;103339.75;;;4.14;100.00
20455;BME280;10386;54.314;10.022;2023-02-28T00:08:52;103327.22;;;4.13;100.00
20455;BME280;10386;54.314;10.022;2023-02-28T00:11:19;103337.09;;;4.11;100.00
20455;BME280;10386;54.314;10.022;2023-02-28T00:13:46;103328.13;;;4.09;100.00
20455;BME280;10386;54.314;10.022;2023-02-28T00:16:19;103325.47;;;4.08;100.00
20455;BME280;10386;54.314;10.022;2023-02-28T00:18:47;103331.66;;;4.22;100.00
20455;BME280;10386;54.314;10.022;2023-02-28T00:21:15;103326.34;;;4.11;100.00
20455;BME280;10386;54.314;10.022;2023-02-28T00:23:42;103331.69;;;4.16;100.00
20455;BME280;10386;54.314;10.022;2023-02-28T00:26:10;103335.25;;;4.25;100.00
20455;BME280;10386;54.314;10.022;2023-02-28T00:28:37;103330.78;;;4.18;100.00
20455;BME280;10386;54.314;10.022;2023-02-28T00:31:04;103335.28;;;4.15;100.00
20455;BME280;10386;54.314;10.022;2023-02-28T00:33:31;103336.19;;;4.14;100.00
20455;BME280;10386;54.314;10.022;2023-02-28T00:36:06;103330.88;;;3.98;100.00
20455;BME280;10386;54.314;10.022;2023-02-28T00:38:33;103328.25;;;3.90;100.00
20455;BME280;10386;54.314;10.022;2023-02-28T00:41:00;103321.97;;;3.91;100.00
20455;BME280;10386;54.314;10.022;2023-02-28T00:43:33;103321.09;;;3.88;100.00
20455;BME280;10386;54.314;10.022;2023-02-28T00:46:01;103321.97;;;3.91;100.00
20455;BME280;10386;54.314;10.022;2023-02-28T00:48:28;103324.66;;;3.94;100.00
20455;BME280;10386;54.314;10.022;2023-02-28T00:50:55;103325.56;;;3.93;100.00
20455;BME280;10386;54.314;10.022;2023-02-28T00:53:21;103332.69;;;3.97;100.00
20455;BME280;10386;54.314;10.022;2023-02-28T00:55:49;103323.66;;;4.11;100.00
20455;BME280;10386;54.314;10.022;2023-02-28T00:58:20;103331.75;;;4.07;100.00
20455;BME280;10386;54.314;10.022;2023-02-28T01:00:47;103323.69;;;4.07;100.00
20455;BME280;10386;54.314;10.022;2023-02-28T01:03:16;103321.00;;;4.07;100.00
20455;BME280;10386;54.314;10.022;2023-02-28T01:05:43;103329.91;;;4.18;100.00
20455;BME280;10386;54.314;10.022;2023-02-28T01:08:11;103323.53;;;4.31;100.00
20455;BME280;10386;54.314;10.022;2023-02-28T01:10:38;103324.44;;;4.34;100.00
20455;BME280;10386;54.314;10.022;2023-02-28T01:13:04;103333.41;;;4.29;100.00
20455;BME280;10386;54.314;10.022;2023-02-28T01:15:33;103334.34;;;4.26;100.00
20455;BME280;10386;54.314;10.022;2023-02-28T01:18:00;103341.53;;;4.20;100.00
20455;BME280;10386;54.314;10.022;2023-02-28T01:20:27;103325.34;;;4.29;100.00
20455;BME280;10386;54.314;10.022;2023-02-28T01:22:54;103335.22;;;4.22;100.00
20455;BME280;10386;54.314;10.022;2023-02-28T01:25:21;103319.22;;;4.02;100.00
20455;BME280;10386;54.314;10.022;2023-02-28T01:27:47;103322.84;;;3.95;100.00
20455;BME280;10386;54.314;10.022;2023-02-28T01:30:14;103325.53;;;3.95;100.00
20455;BME280;10386;54.314;10.022;2023-02-28T01:32:41;103321.97;;;3.90;100.00
20455;BME280;10386;54.314;10.022;2023-02-28T01:35:08;103320.22;;;3.87;100.00
20455;BME280;10386;54.314;10.022;2023-02-28T01:37:35;103308.53;;;3.91;100.00
20455;BME280;10386;54.314;10.022;2023-02-28T01:40:02;103312.06;;;3.98;100.00
20455;BME280;10386;54.314;10.022;2023-02-28T01:42:28;103309.41;;;3.96;100.00
20455;BME280;10386;54.314;10.022;2023-02-28T01:45:00;103304.88;;;4.03;100.00
20455;BME280;10386;54.314;10.022;2023-02-28T01:47:34;103299.56;;;3.94;100.00
20455;BME280;10386;54.314;10.022;2023-02-28T01:50:07;103304.94;;;3.98;100.00
20455;BME280;10386;54.314;10.022;2023-02-28T01:52:36;103296.84;;;4.00;100.00
20455;BME280;10386;54.314;10.022;2023-02-28T01:55:05;103290.56;;;4.01;100.00
20455;BME280;10386;54.314;10.022;2023-02-28T01:57:43;103294.19;;;3.91;100.00
20455;BME280;10386;54.314;10.022;2023-02-28T02:00:14;103293.34;;;3.87;100.00
20455;BME280;10386;54.314;10.022;2023-02-28T02:02:43;103290.63;;;3.86;100.00
20455;BME280;10386;54.314;10.022;2023-02-28T02:05:18;103289.75;;;3.88;100.00
20455;BME280;10386;54.314;10.022;2023-02-28T02:07:47;103292.44;;;3.84;100.00
20455;BME280;10386;54.314;10.022;2023-02-28T02:10:16;103288.84;;;3.85;100.00
20455;BME280;10386;54.314;10.022;2023-02-28T02:41:13;103276.41;;;3.66;100.00
20455;BME280;10386;54.314;10.022;2023-02-28T02:46:34;103278.19;;;3.62;100.00
20455;BME280;10386;54.314;10.022;2023-02-28T02:49:05;103274.63;;;3.57;100.00
20455;BME280;10386;54.314;10.022;2023-02-28T02:51:32;103280.09;;;3.44;100.00
20455;BME280;10386;54.314;10.022;2023-02-28T02:56:32;103274.69;;;3.38;100.00
20455;BME280;10386;54.314;10.022;2023-02-28T02:59:03;103272.03;;;3.35;100.00
20455;BME280;10386;54.314;10.022;2023-02-28T03:01:31;103263.06;;;3.40;100.00
20455;BME280;10386;54.314;10.022;2023-02-28T03:04:05;103266.63;;;3.45;100.00
20455;BME280;10386;54.314;10.022;2023-02-28T03:06:34;103270.22;;;3.52;100.00
20455;BME280;10386;54.314;10.022;2023-02-28T03:09:02;103271.09;;;3.51;100.00
20455;BME280;10386;54.314;10.022;2023-02-28T03:11:29;103272.91;;;3.40;100.00
20455;BME280;10386;54.314;10.022;2023-02-28T03:23:13;103260.41;;;3.27;100.00
20455;BME280;10386;54.314;10.022;2023-02-28T03:26:13;103265.78;;;3.27;100.00
20455;BME280;10386;54.314;10.022;2023-02-28T03:29:10;103268.50;;;3.18;100.00
20455;BME280;10386;54.314;10.022;2023-02-28T03:31:53;103262.25;;;3.14;100.00
20455;BME280;10386;54.314;10.022;2023-02-28T03:34:29;103264.06;;;3.08;100.00
20455;BME280;10386;54.314;10.022;2023-02-28T03:37:02;103262.28;;;2.93;100.00
20455;BME280;10386;54.314;10.022;2023-02-28T03:39:38;103272.13;;;2.79;100.00
20455;BME280;10386;54.314;10.022;2023-02-28T03:42:13;103273.94;;;2.64;100.00
20455;BME280;10386;54.314;10.022;2023-02-28T03:44:43;103273.03;;;2.50;100.00
20455;BME280;10386;54.314;10.022;2023-02-28T03:47:19;103263.19;;;2.31;100.00
20455;BME280;10386;54.314;10.022;2023-02-28T03:50:02;103265.84;;;2.04;100.00
20455;BME280;10386;54.314;10.022;2023-02-28T03:52:34;103273.84;;;2.03;100.00
20455;BME280;10386;54.314;10.022;2023-02-28T03:55:05;103255.09;;;2.01;100.00
20455;BME280;10386;54.314;10.022;2023-02-28T04:00:50;103257.78;;;2.03;100.00
20455;BME280;10386;54.314;10.022;2023-02-28T04:03:19;103253.31;;;1.99;100.00
20455;BME280;10386;54.314;10.022;2023-02-28T04:05:50;103259.53;;;1.89;100.00
20455;BME280;10386;54.314;10.022;2023-02-28T04:08:18;103254.97;;;1.65;100.00
20455;BME280;10386;54.314;10.022;2023-02-28T04:10:50;103259.44;;;1.60;100.00
20455;BME280;10386;54.314;10.022;2023-02-28T04:13:19;103263.00;;;1.61;100.00
20455;BME280;10386;54.314;10.022;2023-02-28T04:15:46;103261.19;;;1.54;100.00
20455;BME280;10386;54.314;10.022;2023-02-28T04:18:13;103266.56;;;1.58;100.00
20455;BME280;10386;54.314;10.022;2023-02-28T04:20:39;103269.28;;;1.63;100.00
20455;BME280;10386;54.314;10.022;2023-02-28T04:23:06;103270.19;;;1.74;100.00
20455;BME280;10386;54.314;10.022;2023-02-28T04:25:33;103271.03;;;1.59;100.00
20455;BME280;10386;54.314;10.022;2023-02-28T04:28:00;103268.28;;;1.40;100.00
20455;BME280;10386;54.314;10.022;2023-02-28T04:30:26;103269.13;;;1.30;100.00
20455;BME280;10386;54.314;10.022;2023-02-28T04:32:53;103274.41;;;1.21;100.00
20455;BME280;10386;54.314;10.022;2023-02-28T04:35:20;103280.66;;;1.22;100.00
20455;BME280;10386;54.314;10.022;2023-02-28T04:37:46;103275.25;;;1.13;100.00
20455;BME280;10386;54.314;10.022;2023-02-28T04:40:13;103277.88;;;1.01;100.00
20455;BME280;10386;54.314;10.022;2023-02-28T04:42:40;103274.28;;;1.00;100.00
20455;BME280;10386;54.314;10.022;2023-02-28T04:45:07;103277.56;;;0.60;100.00
20455;BME280;10386;54.314;10.022;2023-02-28T04:47:36;103282.81;;;0.53;100.00
20455;BME280;10386;54.314;10.022;2023-02-28T04:50:03;103282.88;;;0.57;100.00
20455;BME280;10386;54.314;10.022;2023-02-28T04:52:30;103271.28;;;0.55;100.00
20455;BME280;10386;54.314;10.022;2023-02-28T04:54:57;103276.63;;;0.55;100.00
20455;BME280;10386;54.314;10.022;2023-02-28T04:57:23;103267.75;;;0.61;100.00
20455;BME280;10386;54.314;10.022;2023-02-28T04:59:50;103271.31;;;0.61;100.00
20455;BME280;10386;54.314;10.022;2023-02-28T05:02:17;103265.97;;;0.63;100.00
20455;BME280;10386;54.314;10.022;2023-02-28T05:04:44;103265.72;;;0.33;100.00
20455;BME280;10386;54.314;10.022;2023-02-28T05:07:10;103273.59;;;0.18;100.00
20455;BME280;10386;54.314;10.022;2023-02-28T05:09:37;103255.84;;;0.23;100.00
20455;BME280;10386;54.314;10.022;2023-02-28T05:12:04;103252.34;;;0.30;100.00
20455;BME280;10386;54.314;10.022;2023-02-28T05:14:31;103245.22;;;0.29;100.00
20455;BME280;10386;54.314;10.022;2023-02-28T05:16:57;103245.19;;;0.27;100.00
20455;BME280;10386;54.314;10.022;2023-02-28T05:19:24;103245.22;;;0.32;100.00
20455;BME280;10386;54.314;10.022;2023-02-28T05:21:55;103250.63;;;0.38;100.00
20455;BME280;10386;54.314;10.022;2023-02-28T05:24:21;103237.28;;;0.38;100.00
20455;BME280;10386;54.314;10.022;2023-02-28T05:26:53;103236.38;;;0.36;100.00
20455;BME280;10386;54.314;10.022;2023-02-28T05:29:20;103240.91;;;0.46;100.00
20455;BME280;10386;54.314;10.022;2023-02-28T05:31:47;103240.84;;;0.41;100.00
20455;BME280;10386;54.314;10.022;2023-02-28T05:34:14;103247.06;;;0.39;100.00
20455;BME280;10386;54.314;10.022;2023-02-28T05:36:42;103247.03;;;0.37;100.00
20455;BME280;10386;54.314;10.022;2023-02-28T05:39:09;103249.00;;;0.53;100.00
20455;BME280;10386;54.314;10.022;2023-02-28T05:41:40;103239.13;;;0.45;100.00
20455;BME280;10386;54.314;10.022;2023-02-28T05:44:07;103245.31;;;0.42;100.00
20455;BME280;10386;54.314;10.022;2023-02-28T05:46:34;103246.91;;;0.22;100.00
20455;BME280;10386;54.314;10.022;2023-02-28T05:49:01;103250.47;;;0.21;100.00
20455;BME280;10386;54.314;10.022;2023-02-28T05:51:28;103254.88;;;0.16;100.00
20455;BME280;10386;54.314;10.022;2023-02-28T05:53:59;103250.41;;;0.14;100.00
20455;BME280;10386;54.314;10.022;2023-02-28T05:56:26;103259.22;;;0.05;100.00
20455;BME280;10386;54.314;10.022;2023-02-28T05:58:53;103261.88;;;0.05;100.00
20455;BME280;10386;54.314;10.022;2023-02-28T06:03:51;103259.41;;;0.25;100.00
20455;BME280;10386;54.314;10.022;2023-02-28T06:06:18;103250.56;;;0.29;100.00
20455;BME280;10386;54.314;10.022;2023-02-28T06:08:45;103257.72;;;0.34;100.00
20455;BME280;10386;54.314;10.022;2023-02-28T06:11:12;103252.38;;;0.34;100.00
20455;BME280;10386;54.314;10.022;2023-02-28T06:13:38;103257.75;;;0.39;100.00
20455;BME280;10386;54.314;10.022;2023-02-28T06:16:05;103245.38;;;0.45;100.00
20455;BME280;10386;54.314;10.022;2023-02-28T06:18:32;103247.06;;;0.40;100.00
20455;BME280;10386;54.314;10.022;2023-02-28T06:20:59;103242.59;;;0.35;100.00
20455;BME280;10386;54.314;10.022;2023-02-28T06:23:25;103249.44;;;0.07;100.00
20455;BME280;10386;54.314;10.022;2023-02-28T06:25:52;103260.97;;;0.02;100.00
20455;BME280;10386;54.314;10.022;2023-02-28T06:28:19;103250.38;;;0.11;100.00
20455;BME280;10386;54.314;10.022;2023-02-28T06:30:47;103256.63;;;0.14;100.00
20455;BME280;10386;54.314;10.022;2023-02-28T06:33:14;103254.06;;;0.22;100.00
20455;BME280;10386;54.314;10.022;2023-02-28T06:35:44;103247.81;;;0.24;100.00
20455;BME280;10386;54.314;10.022;2023-02-28T06:38:11;103245.22;;;0.32;100.00
20455;BME280;10386;54.314;10.022;2023-02-28T06:40:38;103251.50;;;0.34;100.00
20455;BME280;10386;54.314;10.022;2023-02-28T06:43:04;103249.72;;;0.37;100.00
20455;BME280;10386;54.314;10.022;2023-02-28T06:45:31;103263.94;;;0.33;100.00
20455;BME280;10386;54.314;10.022;2023-02-28T06:47:59;103259.59;;;0.44;100.00
20455;BME280;10386;54.314;10.022;2023-02-28T06:50:26;103250.72;;;0.48;100.00
20455;BME280;10386;54.314;10.022;2023-02-28T06:52:55;103246.25;;;0.46;100.00
20455;BME280;10386;54.314;10.022;2023-02-28T06:55:22;103244.53;;;0.57;100.00
20455;BME280;10386;54.314;10.022;2023-02-28T06:57:48;103243.63;;;0.50;100.00
20455;BME280;10386;54.314;10.022;2023-02-28T07:00:17;103241.09;;;0.73;100.00
20455;BME280;10386;54.314;10.022;2023-02-28T07:02:44;103236.75;;;0.85;100.00
20455;BME280;10386;54.314;10.022;2023-02-28T07:05:11;103237.75;;;1.01;100.00
20455;BME280;10386;54.314;10.022;2023-02-28T07:07:37;103239.59;;;1.11;100.00
20455;BME280;10386;54.314;10.022;2023-02-28T07:10:07;103236.97;;;1.23;100.00
20455;BME280;10386;54.314;10.022;2023-02-28T07:12:35;103238.84;;;1.41;100.00
20455;BME280;10386;54.314;10.022;2023-02-28T07:15:04;103234.44;;;1.54;100.00
20455;BME280;10386;54.314;10.022;2023-02-28T07:17:31;103237.09;;;1.51;100.00
20455;BME280;10386;54.314;10.022;2023-02-28T07:19:58;103231.81;;;1.69;100.00
20455;BME280;10386;54.314;10.022;2023-02-28T07:22:25;103239.91;;;1.85;100.00
20455;BME280;10386;54.314;10.022;2023-02-28T07:24:51;103229.19;;;1.90;100.00
20455;BME280;10386;54.314;10.022;2023-02-28T07:27:18;103229.22;;;2.00;100.00
20455;BME280;10386;54.314;10.022;2023-02-28T07:29:50;103226.56;;;2.17;100.00
20455;BME280;10386;54.314;10.022;2023-02-28T07:32:16;103231.94;;;2.23;100.00
20455;BME280;10386;54.314;10.022;2023-02-28T07:34:44;103233.72;;;2.28;100.00
20455;BME280;10386;54.314;10.022;2023-02-28T07:37:11;103222.09;;;2.58;100.00
20455;BME280;10386;54.314;10.022;2023-02-28T07:39:38;103219.38;;;2.81;100.00
20455;BME280;10386;54.314;10.022;2023-02-28T07:42:05;103209.53;;;2.94;100.00
20455;BME280;10386;54.314;10.022;2023-02-28T07:44:33;103216.59;;;3.19;100.00
20455;BME280;10386;54.314;10.022;2023-02-28T07:46:59;103214.78;;;3.34;100.00
20455;BME280;10386;54.314;10.022;2023-02-28T07:49:26;103212.03;;;3.46;100.00
20455;BME280;10386;54.314;10.022;2023-02-28T07:51:53;103214.66;;;3.55;100.00
20455;BME280;10386;54.314;10.022;2023-02-28T07:54:20;103211.88;;;3.73;100.00
20455;BME280;10386;54.314;10.022;2023-02-28T07:56:46;103222.63;;;3.75;100.00
20455;BME280;10386;54.314;10.022;2023-02-28T07:59:13;103225.25;;;3.82;100.00
20455;BME280;10386;54.314;10.022;2023-02-28T08:01:40;103218.84;;;4.08;100.00
20455;BME280;10386;54.314;10.022;2023-02-28T08:04:06;103217.81;;;4.24;100.00
20455;BME280;10386;54.314;10.022;2023-02-28T08:06:33;103219.38;;;4.55;100.00
20455;BME280;10386;54.314;10.022;2023-02-28T08:09:00;103222.03;;;4.57;100.00
20455;BME280;10386;54.314;10.022;2023-02-28T08:11:27;103219.13;;;4.84;100.00
20455;BME280;10386;54.314;10.022;2023-02-28T08:13:54;103229.94;;;4.78;100.00
20455;BME280;10386;54.314;10.022;2023-02-28T08:16:21;103235.00;;;5.08;100.00
20455;BME280;10386;54.314;10.022;2023-02-28T08:18:50;103242.66;;;5.45;100.00
20455;BME280;10386;54.314;10.022;2023-02-28T08:21:18;103249.59;;;5.64;100.00
20455;BME280;10386;54.314;10.022;2023-02-28T08:23:49;103262.91;;;5.80;100.00
20455;BME280;10386;54.314;10.022;2023-02-28T08:26:17;103269.88;;;5.95;100.00
20455;BME280;10386;54.314;10.022;2023-02-28T08:28:44;103280.53;;;6.05;100.00
20455;BME280;10386;54.314;10.022;2023-02-28T08:31:13;103283.94;;;6.18;100.00
20455;BME280;10386;54.314;10.022;2023-02-28T08:33:41;103302.19;;;5.99;100.00
20455;BME280;10386;54.314;10.022;2023-02-28T08:36:08;103305.53;;;6.18;100.00
20455;BME280;10386;54.314;10.022;2023-02-28T08:38:36;103312.28;;;6.47;100.00
20455;BME280;10386;54.314;10.022;2023-02-28T08:41:05;103322.03;;;6.56;100.00
20455;BME280;10386;54.314;10.022;2023-02-28T08:43:34;103326.28;;;6.72;100.00
20455;BME280;10386;54.314;10.022;2023-02-28T08:46:01;103327.28;;;6.66;100.00
20455;BME280;10386;54.314;10.022;2023-02-28T08:48:31;103327.69;;;6.96;100.00
20455;BME280;10386;54.314;10.022;2023-02-28T08:51:06;103333.09;;;6.96;100.00
20455;BME280;10386;54.314;10.022;2023-02-28T08:53:36;103338.16;;;7.14;100.00
20455;BME280;10386;54.314;10.022;2023-02-28T08:56:10;103335.47;;;7.14;100.00
20455;BME280;10386;54.314;10.022;2023-02-28T08:58:41;103340.94;;;7.10;100.00
20455;BME280;10386;54.314;10.022;2023-02-28T09:01:11;103347.91;;;7.24;100.00
20455;BME280;10386;54.314;10.022;2023-02-28T09:03:38;103346.16;;;7.20;100.00
20455;BME280;10386;54.314;10.022;2023-02-28T09:06:06;103359.59;;;6.71;100.00
20455;BME280;10386;54.314;10.022;2023-02-28T09:08:33;103364.69;;;6.91;100.00
20455;BME280;10386;54.314;10.022;2023-02-28T09:11:00;103367.63;;;6.74;100.00
20455;BME280;10386;54.314;10.022;2023-02-28T09:13:29;103363.09;;;6.76;100.00
20455;BME280;10386;54.314;10.022;2023-02-28T09:16:01;103373.03;;;6.75;100.00
20455;BME280;10386;54.314;10.022;2023-02-28T09:18:29;103365.66;;;6.87;100.00
20455;BME280;10386;54.314;10.022;2023-02-28T09:20:56;103361.97;;;6.91;100.00
20455;BME280;10386;54.314;10.022;2023-02-28T09:23:24;103366.78;;;6.72;100.00
20455;BME280;10386;54.314;10.022;2023-02-28T09:25:53;103372.00;;;6.82;100.00
20455;BME280;10386;54.314;10.022;2023-02-28T09:28:21;103373.84;;;6.78;100.00
20455;BME280;10386;54.314;10.022;2023-02-28T09:30:50;103365.34;;;7.05;100.00
20455;BME280;10386;54.314;10.022;2023-02-28T09:33:18;103367.84;;;7.17;100.00
20455;BME280;10386;54.314;10.022;2023-02-28T09:35:51;103364.69;;;6.91;100.00
20455;BME280;10386;54.314;10.022;2023-02-28T09:38:23;103369.72;;;7.12;100.00
20455;BME280;10386;54.314;10.022;2023-02-28T09:40:53;103366.06;;;7.15;100.00
20455;BME280;10386;54.314;10.022;2023-02-28T09:43:25;103363.63;;;7.00;100.00
20455;BME280;10386;54.314;10.022;2023-02-28T09:46:00;103355.56;;;6.97;100.00
20455;BME280;10386;54.314;10.022;2023-02-28T09:48:37;103354.63;;;6.99;100.00
20455;BME280;10386;54.314;10.022;2023-02-28T09:51:18;103367.13;;;7.06;100.00
20455;BME280;10386;54.314;10.022;2023-02-28T09:53:50;103364.78;;;7.37;100.00
20455;BME280;10386;54.314;10.022;2023-02-28T09:56:42;103356.84;;;7.28;100.00
20455;BME280;10386;54.314;10.022;2023-02-28T10:02:49;103359.34;;;7.38;100.00
20455;BME280;10386;54.314;10.022;2023-02-28T10:05:14;103343.06;;;7.43;100.00
20455;BME280;10386;54.314;10.022;2023-02-28T10:08:03;103338.22;;;7.58;100.00
20455;BME280;10386;54.314;10.022;2023-02-28T10:10:42;103333.72;;;7.59;100.00
20455;BME280;10386;54.314;10.022;2023-02-28T10:16:40;103320.09;;;7.66;100.00
20455;BME280;10386;54.314;10.022;2023-02-28T10:21:59;103345.09;;;7.30;100.00
20455;BME280;10386;54.314;10.022;2023-02-28T10:24:35;103344.56;;;7.57;100.00
20455;BME280;10386;54.314;10.022;2023-02-28T10:27:17;103340.44;;;7.84;100.00
20455;BME280;10386;54.314;10.022;2023-02-28T10:29:53;103330.53;;;7.84;100.00
20455;BME280;10386;54.314;10.022;2023-02-28T10:32:26;103322.06;;;7.55;100.00
20455;BME280;10386;54.314;10.022;2023-02-28T10:35:18;103330.13;;;7.58;100.00
20455;BME280;10386;54.314;10.022;2023-02-28T10:37:49;103334.53;;;7.64;100.00
20455;BME280;10386;54.314;10.022;2023-02-28T10:43:02;103308.75;;;8.32;100.00
20455;BME280;10386;54.314;10.022;2023-02-28T10:45:32;103297.81;;;7.96;100.00
20455;BME280;10386;54.314;10.022;2023-02-28T10:51:25;103301.53;;;8.69;100.00
20455;BME280;10386;54.314;10.022;2023-02-28T10:54:00;103295.78;;;8.83;100.00
20455;BME280;10386;54.314;10.022;2023-02-28T10:56:29;103283.66;;;8.62;100.00
20455;BME280;10386;54.314;10.022;2023-02-28T10:59:24;103301.56;;;8.31;100.00
20455;BME280;10386;54.314;10.022;2023-02-28T11:01:47;103312.53;;;7.83;100.00
20455;BME280;10386;54.314;10.022;2023-02-28T11:07:00;103339.88;;;7.67;100.00
20455;BME280;10386;54.314;10.022;2023-02-28T11:09:34;103350.31;;;7.86;100.00
20455;BME280;10386;54.314;10.022;2023-02-28T11:12:04;103325.06;;;7.87;100.00
20455;BME280;10386;54.314;10.022;2023-02-28T11:14:42;103326.16;;;7.77;100.00
20455;BME280;10386;54.314;10.022;2023-02-28T11:17:26;103314.44;;;7.78;100.00
20455;BME280;10386;54.314;10.022;2023-02-28T11:19:56;103327.44;;;8.02;100.00
20455;BME280;10386;54.314;10.022;2023-02-28T11:22:26;103329.47;;;7.91;100.00
20455;BME280;10386;54.314;10.022;2023-02-28T11:24:58;103330.78;;;8.13;100.00
20455;BME280;10386;54.314;10.022;2023-02-28T11:27:42;103314.38;;;8.23;100.00
20455;BME280;10386;54.314;10.022;2023-02-28T11:32:57;103313.38;;;7.84;100.00
20455;BME280;10386;54.314;10.022;2023-02-28T11:35:30;103299.06;;;7.79;100.00
20455;BME280;10386;54.314;10.022;2023-02-28T11:37:58;103309.81;;;7.83;100.00
20455;BME280;10386;54.314;10.022;2023-02-28T11:40:36;103321.56;;;7.81;100.00
20455;BME280;10386;54.314;10.022;2023-02-28T11:43:34;103317.59;;;7.98;100.00
20455;BME280;10386;54.314;10.022;2023-02-28T11:46:48;103320.44;;;7.91;100.00
20455;BME280;10386;54.314;10.022;2023-02-28T11:49:05;103328.22;;;8.07;100.00
20455;BME280;10386;54.314;10.022;2023-02-28T11:57:28;103300.59;;;8.34;100.00
20455;BME280;10386;54.314;10.022;2023-02-28T12:00:06;103269.09;;;8.68;100.00
20455;BME280;10386;54.314;10.022;2023-02-28T12:03:34;103264.47;;;8.71;100.00
20455;BME280;10386;54.314;10.022;2023-02-28T12:09:02;103271.81;;;8.66;100.00
20455;BME280;10386;54.314;10.022;2023-02-28T12:22:22;103296.41;;;8.59;100.00
20455;BME280;10386;54.314;10.022;2023-02-28T12:25:21;103272.56;;;8.36;100.00
20455;BME280;10386;54.314;10.022;2023-02-28T12:27:51;103287.56;;;8.51;100.00
20455;BME280;10386;54.314;10.022;2023-02-28T12:30:24;103269.94;;;8.33;100.00
20455;BME280;10386;54.314;10.022;2023-02-28T12:33:09;103255.34;;;8.00;100.00
20455;BME280;10386;54.314;10.022;2023-02-28T12:35:48;103273.81;;;8.22;100.00
20455;BME280;10386;54.314;10.022;2023-02-28T12:38:27;103253.31;;;8.11;100.00
20455;BME280;10386;54.314;10.022;2023-02-28T12:41:03;103252.22;;;8.21;100.00
20455;BME280;10386;54.314;10.022;2023-02-28T12:43:36;103254.16;;;8.13;100.00
20455;BME280;10386;54.314;10.022;2023-02-28T12:46:11;103252.31;;;8.15;100.00
20455;BME280;10386;54.314;10.022;2023-02-28T12:48:48;103251.34;;;8.19;100.00
20455;BME280;10386;54.314;10.022;2023-02-28T12:51:17;103245.72;;;8.27;100.00
20455;BME280;10386;54.314;10.022;2023-02-28T12:54:29;103225.16;;;8.21;100.00
20455;BME280;10386;54.314;10.022;2023-02-28T12:59:59;103230.13;;;8.37;100.00
20455;BME280;10386;54.314;10.022;2023-02-28T13:02:39;103210.81;;;8.14;100.00
20455;BME280;10386;54.314;10.022;2023-02-28T13:10:42;103195.94;;;8.33;100.00
20455;BME280;10386;54.314;10.022;2023-02-28T13:13:18;103199.03;;;8.18;100.00
20455;BME280;10386;54.314;10.022;2023-02-28T13:16:08;103213.03;;;8.35;100.00
20455;BME280;10386;54.314;10.022;2023-02-28T13:18:38;103201.06;;;8.45;100.00
20455;BME280;10386;54.314;10.022;2023-02-28T13:21:22;103190.03;;;8.54;100.00
20455;BME280;10386;54.314;10.022;2023-02-28T13:29:03;103171.00;;;8.57;100.00
20455;BME280;10386;54.314;10.022;2023-02-28T13:34:40;103157.47;;;8.57;100.00
20455;BME280;10386;54.314;10.022;2023-02-28T13:39:45;103158.69;;;8.77;100.00
20455;BME280;10386;54.314;10.022;2023-02-28T13:47:44;103217.38;;;8.42;100.00
20455;BME280;10386;54.314;10.022;2023-02-28T14:03:44;103199.47;;;8.71;100.00
20455;BME280;10386;54.314;10.022;2023-02-28T14:06:23;103207.75;;;8.67;100.00
20455;BME280;10386;54.314;10.022;2023-02-28T14:08:58;103186.22;;;8.61;100.00
20455;BME280;10386;54.314;10.022;2023-02-28T14:11:34;103183.53;;;8.94;100.00
20455;BME280;10386;54.314;10.022;2023-02-28T14:14:02;103163.41;;;9.03;100.00
20455;BME280;10386;54.314;10.022;2023-02-28T14:16:48;103165.44;;;8.95;100.00
20455;BME280;10386;54.314;10.022;2023-02-28T14:19:35;103166.47;;;8.89;100.00
20455;BME280;10386;54.314;10.022;2023-02-28T14:22:25;103187.09;;;8.95;100.00
20455;BME280;10386;54.314;10.022;2023-02-28T14:31:06;103153.19;;;9.12;100.00
20455;BME280;10386;54.314;10.022;2023-02-28T14:36:40;103199.09;;;9.18;100.00
20455;BME280;10386;54.314;10.022;2023-02-28T14:39:25;103192.06;;;9.11;100.00
20455;BME280;10386;54.314;10.022;2023-02-28T14:41:57;103172.19;;;9.12;100.00
20455;BME280;10386;54.314;10.022;2023-02-28T14:44:31;103164.31;;;9.03;100.00
20455;BME280;10386;54.314;10.022;2023-02-28T14:47:03;103163.41;;;9.03;100.00
20455;BME280;10386;54.314;10.022;2023-02-28T14:49:42;103166.09;;;9.03;100.00
20455;BME280;10386;54.314;10.022;2023-02-28T14:52:30;103176.94;;;9.03;100.00
20455;BME280;10386;54.314;10.022;2023-02-28T14:55:12;103198.00;;;8.93;100.00
20455;BME280;10386;54.314;10.022;2023-02-28T14:57:51;103208.50;;;9.05;100.00
20455;BME280;10386;54.314;10.022;2023-02-28T15:00:25;103197.88;;;8.98;100.00
20455;BME280;10386;54.314;10.022;2023-02-28T15:02:54;103171.09;;;8.86;100.00
20455;BME280;10386;54.314;10.022;2023-02-28T15:05:27;103163.47;;;9.01;100.00
20455;BME280;10386;54.314;10.022;2023-02-28T15:08:20;103166.38;;;8.92;100.00
20455;BME280;10386;54.314;10.022;2023-02-28T15:10:55;103180.75;;;8.96;100.00
20455;BME280;10386;54.314;10.022;2023-02-28T15:13:42;103181.50;;;9.02;100.00
20455;BME280;10386;54.314;10.022;2023-02-28T15:16:14;103163.53;;;8.98;100.00
20455;BME280;10386;54.314;10.022;2023-02-28T15:18:55;103180.00;;;8.91;100.00